Map

Track Data

SID SEASON NUMBER BASIN SUBBASIN NAME ISO_TIME NATURE LAT LON WMO_WIND WMO_PRES WMO_AGENCY TRACK_TYPE DIST2LAND LANDFALL IFLAG USA_AGENCY USA_ATCF_ID USA_LAT USA_LON USA_RECORD USA_STATUS USA_WIND USA_PRES USA_SSHS USA_R34_NE USA_R34_SE USA_R34_SW USA_R34_NW USA_R50_NE USA_R50_SE USA_R50_SW USA_R50_NW USA_R64_NE USA_R64_SE USA_R64_SW USA_R64_NW USA_POCI USA_ROCI USA_RMW USA_EYE TOKYO_LAT TOKYO_LON TOKYO_GRADE TOKYO_WIND TOKYO_PRES TOKYO_R50_DIR TOKYO_R50_LONG TOKYO_R50_SHORT TOKYO_R30_DIR TOKYO_R30_LONG TOKYO_R30_SHORT TOKYO_LAND CMA_LAT CMA_LON CMA_CAT CMA_WIND CMA_PRES HKO_LAT HKO_LON HKO_CAT HKO_WIND HKO_PRES NEWDELHI_LAT NEWDELHI_LON NEWDELHI_GRADE NEWDELHI_WIND NEWDELHI_PRES NEWDELHI_CI NEWDELHI_DP NEWDELHI_POCI REUNION_LAT REUNION_LON REUNION_TYPE REUNION_WIND REUNION_PRES REUNION_TNUM REUNION_CI REUNION_RMW REUNION_R34_NE REUNION_R34_SE REUNION_R34_SW REUNION_R34_NW REUNION_R50_NE REUNION_R50_SE REUNION_R50_SW REUNION_R50_NW REUNION_R64_NE REUNION_R64_SE REUNION_R64_SW REUNION_R64_NW BOM_LAT BOM_LON BOM_TYPE BOM_WIND BOM_PRES BOM_TNUM BOM_CI BOM_RMW BOM_R34_NE BOM_R34_SE BOM_R34_SW BOM_R34_NW BOM_R50_NE BOM_R50_SE BOM_R50_SW BOM_R50_NW BOM_R64_NE BOM_R64_SE BOM_R64_SW BOM_R64_NW BOM_ROCI BOM_POCI BOM_EYE BOM_POS_METHOD BOM_PRES_METHOD NADI_LAT NADI_LON NADI_CAT NADI_WIND NADI_PRES WELLINGTON_LAT WELLINGTON_LON WELLINGTON_WIND WELLINGTON_PRES DS824_LAT DS824_LON DS824_STAGE DS824_WIND DS824_PRES TD9636_LAT TD9636_LON TD9636_STAGE TD9636_WIND TD9636_PRES TD9635_LAT TD9635_LON TD9635_WIND TD9635_PRES TD9635_ROCI NEUMANN_LAT NEUMANN_LON NEUMANN_CLASS NEUMANN_WIND NEUMANN_PRES MLC_LAT MLC_LON MLC_CLASS MLC_WIND MLC_PRES USA_GUST BOM_GUST BOM_GUST_PER REUNION_GUST REUNION_GUST_PER USA_SEAHGT USA_SEARAD_NE USA_SEARAD_SE USA_SEARAD_SW USA_SEARAD_NW STORM_SPEED STORM_DIR
1896209N13137 1896 21 WP MM NOT_NAMED 1896-07-26 16:00:00 NR 13.0000 137.300 main 1271 1055 __________O___ -1 13.0000 137.300 7 68 290
1896209N13137 1896 21 WP MM NOT_NAMED 1896-07-26 18:00:00 NR 13.7782 135.119 main 1055 755 __________P___ -1 13.7782 135.119 7 66 290
1896209N13137 1896 21 WP MM NOT_NAMED 1896-07-26 21:00:00 NR 14.8680 131.943 main 755 548 __________P___ -1 14.8680 131.943 7 62 289
1896209N13137 1896 21 WP MM NOT_NAMED 1896-07-27 00:00:00 NR 15.8001 129.093 main 548 387 __________P___ -1 15.8001 129.093 7 52 288
1896209N13137 1896 21 WP MM NOT_NAMED 1896-07-27 03:00:00 NR 16.5169 126.801 main 387 368 __________P___ -1 16.5169 126.801 7 44 288
1896209N13137 1896 21 WP MM NOT_NAMED 1896-07-27 04:00:00 NR 16.7000 126.200 main 364 297 __________O___ -1 16.7000 126.200 4 31 288
1896209N13137 1896 21 WP MM NOT_NAMED 1896-07-27 06:00:00 NR 16.9803 125.267 main 297 203 __________P___ -1 16.9803 125.267 4 22 287
1896209N13137 1896 21 WP MM NOT_NAMED 1896-07-27 09:00:00 NR 17.2354 124.410 main 203 162 __________P___ -1 17.2354 124.410 4 13 288
1896209N13137 1896 21 WP MM NOT_NAMED 1896-07-27 12:00:00 NR 17.3696 123.975 main 165 135 __________P___ -1 17.3696 123.975 4 7 289
1896209N13137 1896 21 WP MM NOT_NAMED 1896-07-27 15:00:00 NR 17.4639 123.700 main 139 129 __________P___ -1 17.4639 123.700 4 6 290
1896209N13137 1896 21 WP MM NOT_NAMED 1896-07-27 16:00:00 NR 17.5000 123.600 main 129 91 __________O___ -1 17.5000 123.600 4 10 289
1896209N13137 1896 21 WP MM NOT_NAMED 1896-07-27 18:00:00 NR 17.6247 123.204 main 91 52 __________P___ -1 17.6247 123.204 4 12 289
1896209N13137 1896 21 WP MM NOT_NAMED 1896-07-27 21:00:00 NR 17.8122 122.630 main 52 0 __________P___ -1 17.8122 122.630 4 12 289
1896209N13137 1896 21 WP MM NOT_NAMED 1896-07-28 00:00:00 NR 18.0084 122.065 main 0 0 __________P___ -1 18.0084 122.065 4 12 291
1896209N13137 1896 21 WP MM NOT_NAMED 1896-07-28 03:00:00 NR 18.2229 121.494 main 0 0 __________P___ -1 18.2229 121.494 4 12 292
1896209N13137 1896 21 WP MM NOT_NAMED 1896-07-28 04:00:00 NR 18.3000 121.300 main 0 0 __________O___ -1 18.3000 121.300 4 12 293
1896209N13137 1896 21 WP MM NOT_NAMED 1896-07-28 06:00:00 NR 18.4634 120.892 main 0 0 __________P___ -1 18.4634 120.892 4 13 294
1896209N13137 1896 21 WP MM NOT_NAMED 1896-07-28 09:00:00 NR 18.7275 120.267 main 46 53 __________P___ -1 18.7275 120.267 4 13 295
1896209N13137 1896 21 WP MM NOT_NAMED 1896-07-28 12:00:00 NR 19.0088 119.636 main 124 124 __________P___ -1 19.0088 119.636 4 13 296
1896209N13137 1896 21 WP MM NOT_NAMED 1896-07-28 15:00:00 NR 19.3011 119.007 main 196 196 __________P___ -1 19.3011 119.007 4 13 296
1896209N13137 1896 21 WP MM NOT_NAMED 1896-07-28 16:00:00 NR 19.4000 118.800 main 219 219 __________O___ -1 19.4000 118.800 4 12 297
1896209N13137 1896 21 WP MM NOT_NAMED 1896-07-28 18:00:00 NR 19.5772 118.424 main 267 267 __________P___ -1 19.5772 118.424 4 12 297
1896209N13137 1896 21 WP MM NOT_NAMED 1896-07-28 21:00:00 NR 19.8495 117.868 main 324 323 __________P___ -1 19.8495 117.868 4 12 298
1896209N13137 1896 21 WP MM NOT_NAMED 1896-07-29 00:00:00 NR 20.1443 117.286 main 323 259 __________P___ -1 20.1443 117.286 4 13 299
1896209N13137 1896 21 WP MM NOT_NAMED 1896-07-29 03:00:00 NR 20.4777 116.638 main 259 242 __________P___ -1 20.4777 116.638 4 14 299
1896209N13137 1896 21 WP MM NOT_NAMED 1896-07-29 04:00:00 NR 20.6000 116.400 main 242 201 __________O___ -1 20.6000 116.400 4 17 299
1896209N13137 1896 21 WP MM NOT_NAMED 1896-07-29 06:00:00 NR 20.8820 115.867 main 201 133 __________P___ -1 20.8820 115.867 4 18 299
1896209N13137 1896 21 WP MM NOT_NAMED 1896-07-29 09:00:00 NR 21.3428 114.991 main 133 56 __________P___ -1 21.3428 114.991 4 19 299
1896209N13137 1896 21 WP MM NOT_NAMED 1896-07-29 12:00:00 NR 21.8155 114.059 main 59 0 __________P___ -1 21.8155 114.059 4 20 298
1896209N13137 1896 21 WP MM NOT_NAMED 1896-07-29 15:00:00 NR 22.2628 113.112 main 0 0 __________P___ -1 22.2628 113.112 4 20 297
1896209N13137 1896 21 WP MM NOT_NAMED 1896-07-29 16:00:00 NR 22.4000 112.800 main 0 0 __________O___ -1 22.4000 112.800 4 19 294
1896209N13137 1896 21 WP MM NOT_NAMED 1896-07-29 18:00:00 NR 22.6513 112.189 main 0 0 __________P___ -1 22.6513 112.189 4 18 293
1896209N13137 1896 21 WP MM NOT_NAMED 1896-07-29 21:00:00 NR 22.9785 111.301 main 0 0 __________P___ -1 22.9785 111.301 4 17 291
1896209N13137 1896 21 WP MM NOT_NAMED 1896-07-30 00:00:00 NR 23.2616 110.436 main 0 0 __________P___ -1 23.2616 110.436 4 17 289
1896209N13137 1896 21 WP MM NOT_NAMED 1896-07-30 03:00:00 NR 23.5177 109.583 main 0 0 __________P___ -1 23.5177 109.583 4 16 288
1896209N13137 1896 21 WP MM NOT_NAMED 1896-07-30 04:00:00 NR 23.6000 109.300 main 0 __________O___ -1 23.6000 109.300 4 16 288

Digital Typhoon Data and Search

About IBTrACS Database

This database is a web-friendly format of International Best Track Archive for Climate Stewardship (IBTrACS), a global best track data archive curated by NOAA dating back to 1842.

Updated: 2021-10-08